Disclaimer

Please do not use the information listed here in-flight or in-navigation, as they are not provided to us by the airports but are provided by volunteers, so they might be outdated.

Search


Regions


Airport information page

No radio frequency information is available.

Airport informations:
Latitude: 35° 20' 28.09" N
Longitude: 001° 27' 47.33" E
Elevation: 3245 feet - 989 meters
Operating hours: Remarks
Operating agency: Civil government, landing fees and diplomatic clearance may be required
Timezone: UTC+1 - Dates notified by NOTAM
Fuel: JP-4, Wide cut turbine fuel MIL Spec T-5624

Runway information:
08/26 - 9843 x 148 feet< - >3000 x 45 meters

Recent METARs:
DAOB 130200Z 15008KT 9999 FEW026 SCT216 07/03 Q1022
DAOB 130300Z 14009KT 9999 FEW026 SCT216 07/03 Q1022
DAOB 130300Z 14009KT 9999 FEW026 SCT216 07/03 Q1022

Airport on the map: